createdAt,value
2019-04-06T00:00:13.097Z,7.43
2019-04-06T00:02:41.737Z,7.42
2019-04-06T00:05:11.099Z,7.41
2019-04-06T00:07:39.678Z,7.43
2019-04-06T00:10:08.648Z,7.41
2019-04-06T00:12:37.401Z,7.40
2019-04-06T00:15:07.723Z,7.41
2019-04-06T00:17:36.290Z,7.43
2019-04-06T00:20:06.607Z,7.43
2019-04-06T00:22:35.190Z,7.44
2019-04-06T00:25:04.786Z,7.44
2019-04-06T00:27:33.383Z,7.46
2019-04-06T00:30:01.990Z,7.46
2019-04-06T00:32:38.196Z,7.47
2019-04-06T00:35:07.005Z,7.47
2019-04-06T00:37:36.299Z,7.48
2019-04-06T00:40:05.649Z,7.48
2019-04-06T00:42:34.290Z,7.47
2019-04-06T00:45:03.255Z,7.49
2019-04-06T00:47:31.980Z,7.50
2019-04-06T00:50:00.568Z,7.50
2019-04-06T00:52:29.254Z,7.48
2019-04-06T00:54:57.948Z,7.49
2019-04-06T00:57:26.546Z,7.47
2019-04-06T00:59:55.169Z,7.49
2019-04-06T01:02:23.853Z,7.50
2019-04-06T01:04:52.416Z,7.49
2019-04-06T01:07:23.172Z,7.49
2019-04-06T01:09:51.729Z,7.50
2019-04-06T01:12:20.438Z,7.52
2019-04-06T01:14:49.390Z,7.52
2019-04-06T01:17:18.052Z,7.52
2019-04-06T01:19:47.025Z,7.53
2019-04-06T01:22:15.763Z,7.53
2019-04-06T01:24:44.419Z,7.54
2019-04-06T01:27:13.045Z,7.55
2019-04-06T01:29:41.616Z,7.56
2019-04-06T01:32:10.185Z,7.57
2019-04-06T01:34:38.909Z,7.57
2019-04-06T01:37:07.484Z,7.58
2019-04-06T01:39:36.065Z,7.57
2019-04-06T01:42:04.708Z,7.59
2019-04-06T01:44:33.347Z,7.58
2019-04-06T01:47:01.927Z,7.58
2019-04-06T01:49:30.503Z,7.58
2019-04-06T01:51:59.148Z,7.59
2019-04-06T01:54:27.727Z,7.60
2019-04-06T01:56:56.576Z,7.61
2019-04-06T01:59:25.179Z,7.61
2019-04-06T02:01:55.414Z,7.60
2019-04-06T02:04:24.033Z,7.61
2019-04-06T02:06:52.536Z,7.60
2019-04-06T02:09:21.278Z,7.61
2019-04-06T02:11:49.861Z,7.63
2019-04-06T02:14:18.522Z,7.63
2019-04-06T02:16:47.543Z,7.62
2019-04-06T02:19:16.177Z,7.63
2019-04-06T02:21:44.881Z,7.65
2019-04-06T02:24:13.435Z,7.64
2019-04-06T02:26:42.014Z,7.65
2019-04-06T02:29:10.778Z,7.65
2019-04-06T02:31:56.022Z,7.64
2019-04-06T02:34:29.373Z,7.64
2019-04-06T02:37:02.515Z,7.64
2019-04-06T02:39:38.760Z,7.63
2019-04-06T02:42:18.309Z,7.64
2019-04-06T02:44:46.946Z,7.64
2019-04-06T02:47:15.763Z,7.63
2019-04-06T02:49:44.657Z,7.63
2019-04-06T02:52:13.275Z,7.64
2019-04-06T02:54:41.888Z,7.64
2019-04-06T02:57:10.508Z,7.63
2019-04-06T02:59:39.340Z,7.63
2019-04-06T03:02:08.288Z,7.63
2019-04-06T03:04:36.872Z,7.63
2019-04-06T03:07:05.699Z,7.63
2019-04-06T03:09:34.396Z,7.63
2019-04-06T03:12:03.059Z,7.64
2019-04-06T03:14:32.038Z,7.64
2019-04-06T03:17:00.748Z,7.64
2019-04-06T03:19:29.445Z,7.64
2019-04-06T03:21:58.046Z,7.64
2019-04-06T03:24:26.914Z,7.65
2019-04-06T03:27:01.970Z,7.65
2019-04-06T03:29:26.095Z,7.65
2019-04-06T03:31:54.713Z,7.64
2019-04-06T03:34:23.490Z,7.64
2019-04-06T03:36:52.288Z,7.64
2019-04-06T03:39:20.858Z,7.63
2019-04-06T03:41:49.511Z,7.61
2019-04-06T03:44:18.745Z,7.61
2019-04-06T03:46:47.418Z,7.60
2019-04-06T03:49:16.169Z,7.59
2019-04-06T03:51:45.007Z,7.56
2019-04-06T03:54:13.635Z,7.52
2019-04-06T03:56:42.430Z,7.49
2019-04-06T03:59:11.226Z,7.46
2019-04-06T04:01:40.849Z,7.44
2019-04-06T04:04:09.403Z,7.43
2019-04-06T04:06:38.089Z,7.42
2019-04-06T04:09:06.869Z,7.42
2019-04-06T04:11:35.531Z,7.44
2019-04-06T04:14:04.256Z,7.44
2019-04-06T04:16:32.828Z,7.45
2019-04-06T04:19:01.530Z,7.45
2019-04-06T04:21:30.255Z,7.45
2019-04-06T04:23:59.342Z,7.44
2019-04-06T04:26:28.008Z,7.45
2019-04-06T04:28:56.588Z,7.43
2019-04-06T04:31:25.465Z,7.41
2019-04-06T04:33:54.081Z,7.40
2019-04-06T04:36:22.667Z,7.40
2019-04-06T04:38:51.473Z,7.41
2019-04-06T04:41:20.340Z,7.40
2019-04-06T04:43:49.107Z,7.41
2019-04-06T04:46:17.702Z,7.42
2019-04-06T04:48:46.420Z,7.42
2019-04-06T04:51:15.033Z,7.44
2019-04-06T04:53:43.784Z,7.45
2019-04-06T04:56:12.710Z,7.45
2019-04-06T04:58:42.614Z,7.47
2019-04-06T05:01:11.218Z,7.48
2019-04-06T05:03:40.099Z,7.50
2019-04-06T05:06:08.729Z,7.51
2019-04-06T05:08:37.344Z,7.52
2019-04-06T05:11:06.028Z,7.54
2019-04-06T05:13:34.627Z,7.56
2019-04-06T05:16:14.553Z,7.57
2019-04-06T05:18:43.630Z,7.58
2019-04-06T05:21:12.953Z,7.58
2019-04-06T05:23:41.643Z,7.60
2019-04-06T05:26:10.421Z,7.62
2019-04-06T05:28:39.429Z,7.63
2019-04-06T05:31:08.009Z,7.64
2019-04-06T05:33:36.589Z,7.65
2019-04-06T05:36:05.953Z,7.67
2019-04-06T05:38:34.827Z,7.69
2019-04-06T05:41:03.477Z,7.70
2019-04-06T05:43:32.419Z,7.75
2019-04-06T05:46:01.011Z,7.75
2019-04-06T05:48:29.614Z,7.75
2019-04-06T05:50:58.485Z,7.80
2019-04-06T05:53:27.092Z,7.83
2019-04-06T05:55:55.969Z,7.85
2019-04-06T05:58:24.714Z,7.87
2019-04-06T06:00:53.289Z,7.90
2019-04-06T06:03:21.890Z,7.92
2019-04-06T06:05:51.144Z,7.95
2019-04-06T06:08:19.931Z,7.96
2019-04-06T06:10:48.743Z,7.98
2019-04-06T06:13:17.327Z,7.99
2019-04-06T06:15:45.937Z,8.01
2019-04-06T06:18:25.387Z,8.05
2019-04-06T06:20:44.839Z,8.05
2019-04-06T06:23:13.425Z,8.09
2019-04-06T06:25:42.258Z,8.11
2019-04-06T06:28:14.990Z,8.15
2019-04-06T06:30:41.223Z,8.19
2019-04-06T06:33:10.044Z,8.21
2019-04-06T06:35:38.743Z,8.25
2019-04-06T06:38:07.436Z,8.29
2019-04-06T06:40:36.020Z,8.33
2019-04-06T06:43:04.749Z,8.38
2019-04-06T06:45:33.727Z,8.41
2019-04-06T06:48:02.374Z,8.43
2019-04-06T06:50:31.049Z,8.46
2019-04-06T06:52:59.658Z,8.48
2019-04-06T06:55:28.247Z,8.51
2019-04-06T06:57:57.595Z,8.56
2019-04-06T07:00:26.195Z,8.59
2019-04-06T07:02:54.869Z,8.63
2019-04-06T07:05:23.642Z,8.68
2019-04-06T07:07:52.474Z,8.72
2019-04-06T07:10:21.069Z,8.80
2019-04-06T07:12:49.648Z,8.87
2019-04-06T07:15:18.232Z,8.95
2019-04-06T07:17:47.091Z,9.03
2019-04-06T07:20:16.064Z,9.09
2019-04-06T07:22:44.628Z,9.17
2019-04-06T07:25:13.706Z,9.26
2019-04-06T07:27:42.740Z,9.32
2019-04-06T07:30:12.108Z,9.38
2019-04-06T07:32:40.886Z,9.46
2019-04-06T07:35:09.892Z,9.54
2019-04-06T07:37:38.681Z,9.60
2019-04-06T07:40:10.837Z,9.64
2019-04-06T07:42:39.372Z,9.66
2019-04-06T07:45:09.356Z,9.70
2019-04-06T07:47:38.092Z,9.75
2019-04-06T07:50:07.711Z,9.76
2019-04-06T07:52:36.422Z,9.72
2019-04-06T07:55:07.237Z,9.74
2019-04-06T07:57:36.171Z,9.79
2019-04-06T08:00:08.445Z,9.86
2019-04-06T08:02:37.233Z,9.94
2019-04-06T08:05:07.533Z,10.04
2019-04-06T08:07:36.694Z,10.17
2019-04-06T08:10:06.408Z,10.28
2019-04-06T08:12:35.206Z,10.38
2019-04-06T08:15:05.447Z,10.44
2019-04-06T08:17:34.091Z,10.53
2019-04-06T08:20:03.268Z,10.62
2019-04-06T08:22:31.914Z,10.71
2019-04-06T08:25:00.496Z,10.81
2019-04-06T08:27:29.274Z,10.93
2019-04-06T08:29:58.063Z,11.06
2019-04-06T08:32:26.782Z,11.17
2019-04-06T08:34:55.403Z,11.29
2019-04-06T08:37:23.983Z,11.38
2019-04-06T08:39:52.651Z,11.49
2019-04-06T08:42:21.191Z,11.65
2019-04-06T08:44:50.464Z,11.83
2019-04-06T08:47:19.638Z,12.01
2019-04-06T08:49:48.306Z,12.18
2019-04-06T08:52:16.961Z,12.34
2019-04-06T08:54:47.288Z,12.46
2019-04-06T08:57:16.474Z,12.60
2019-04-06T08:59:45.396Z,12.74
2019-04-06T09:02:14.197Z,12.87
2019-04-06T09:04:44.130Z,13.00
2019-04-06T09:07:12.745Z,13.18
2019-04-06T09:09:42.287Z,13.44
2019-04-06T09:12:11.275Z,13.76
2019-04-06T09:14:39.881Z,14.07
2019-04-06T09:17:08.628Z,14.31
2019-04-06T09:19:41.255Z,14.55
2019-04-06T09:22:09.861Z,14.77
2019-04-06T09:24:40.518Z,14.97
2019-04-06T09:27:18.398Z,15.30
2019-04-06T09:29:47.029Z,15.88
2019-04-06T09:32:15.714Z,16.38
2019-04-06T09:34:52.104Z,16.92
2019-04-06T09:37:21.019Z,17.37
2019-04-06T09:39:50.569Z,17.83
2019-04-06T09:42:20.006Z,17.90
2019-04-06T09:44:50.259Z,17.89
2019-04-06T09:47:24.009Z,18.11
2019-04-06T09:50:10.374Z,18.11
2019-04-06T09:52:43.721Z,18.54
2019-04-06T09:55:42.984Z,19.14
2019-04-06T09:58:29.418Z,19.53
2019-04-06T10:01:01.147Z,19.44
2019-04-06T10:03:34.420Z,19.65
2019-04-06T10:06:16.781Z,18.99
2019-04-06T10:08:56.604Z,18.50
2019-04-06T10:11:28.021Z,17.93
2019-04-06T10:13:59.680Z,17.52
2019-04-06T10:16:35.001Z,17.24
2019-04-06T10:19:06.575Z,16.95
2019-04-06T10:21:48.646Z,16.86
2019-04-06T10:24:19.738Z,16.76
2019-04-06T10:27:03.809Z,16.60
2019-04-06T10:29:47.611Z,16.38
2019-04-06T10:32:18.763Z,16.25
2019-04-06T10:34:49.029Z,16.29
2019-04-06T10:37:21.774Z,16.38
2019-04-06T10:40:04.032Z,16.57
2019-04-06T10:42:38.677Z,16.76
2019-04-06T10:45:12.465Z,16.89
2019-04-06T10:47:58.063Z,16.84
2019-04-06T10:50:28.481Z,16.95
2019-04-06T10:53:01.308Z,17.23
2019-04-06T10:55:34.447Z,17.46
2019-04-06T10:58:15.236Z,17.62
2019-04-06T11:01:01.870Z,17.84
2019-04-06T11:03:38.274Z,17.92
2019-04-06T11:06:08.497Z,17.80
2019-04-06T11:08:41.841Z,17.48
2019-04-06T11:11:28.802Z,17.22
2019-04-06T11:14:05.012Z,17.15
2019-04-06T11:16:35.233Z,17.18
2019-04-06T11:19:05.896Z,17.13
2019-04-06T11:21:44.868Z,17.18
2019-04-06T11:24:26.393Z,17.26
2019-04-06T11:26:56.840Z,17.35
2019-04-06T11:29:29.693Z,17.32
2019-04-06T11:32:06.860Z,17.25
2019-04-06T11:34:48.931Z,17.28
2019-04-06T11:37:33.319Z,17.30
2019-04-06T11:40:06.163Z,17.43
2019-04-06T11:42:48.417Z,17.67
2019-04-06T11:45:18.626Z,17.93
2019-04-06T11:47:54.760Z,17.87
2019-04-06T11:50:25.172Z,17.59
2019-04-06T11:53:10.310Z,17.40
2019-04-06T11:55:40.555Z,17.31
2019-04-06T11:58:23.007Z,17.23
2019-04-06T12:00:56.077Z,17.16
2019-04-06T12:03:35.295Z,17.08
2019-04-06T12:06:20.643Z,16.96
2019-04-06T12:09:08.869Z,17.02
2019-04-06T12:11:39.603Z,17.10
2019-04-06T12:14:22.187Z,17.18
2019-04-06T12:16:58.738Z,17.23
2019-04-06T12:19:38.303Z,17.22
2019-04-06T12:22:20.914Z,17.20
2019-04-06T12:24:59.940Z,17.21
2019-04-06T12:27:46.539Z,17.15
2019-04-06T12:30:23.378Z,17.04
2019-04-06T12:33:10.584Z,16.97
2019-04-06T12:35:43.571Z,17.03
2019-04-06T12:38:30.758Z,17.10
2019-04-06T12:41:14.001Z,17.25
2019-04-06T12:44:00.392Z,17.50
2019-04-06T12:46:33.513Z,17.75
2019-04-06T12:49:06.582Z,17.99
2019-04-06T12:51:55.510Z,18.28
2019-04-06T12:54:44.587Z,18.50
2019-04-06T12:57:32.077Z,18.90
2019-04-06T13:00:03.610Z,19.23
2019-04-06T13:02:51.093Z,19.21
2019-04-06T13:05:33.690Z,19.22
2019-04-06T13:08:06.711Z,19.15
2019-04-06T13:10:38.383Z,18.98
2019-04-06T13:13:11.456Z,18.85
2019-04-06T13:15:57.535Z,18.79
2019-04-06T13:18:31.571Z,18.81
2019-04-06T13:21:07.917Z,18.67
2019-04-06T13:23:53.216Z,18.89
2019-04-06T13:26:33.118Z,19.17
2019-04-06T13:29:10.361Z,19.25
2019-04-06T13:31:53.291Z,19.12
2019-04-06T13:34:24.278Z,18.91
2019-04-06T13:37:00.259Z,18.61
2019-04-06T13:39:30.828Z,18.42
2019-04-06T13:42:03.653Z,18.32
2019-04-06T13:44:50.982Z,18.29
2019-04-06T13:47:21.211Z,18.49
2019-04-06T13:50:04.390Z,18.80
2019-04-06T13:52:49.638Z,19.07
2019-04-06T13:55:36.336Z,19.37
2019-04-06T13:58:07.673Z,19.52
2019-04-06T14:00:57.819Z,19.35
2019-04-06T14:03:28.121Z,19.11
2019-04-06T14:06:14.321Z,18.93
2019-04-06T14:08:48.774Z,18.82
2019-04-06T14:11:35.378Z,18.87
2019-04-06T14:14:18.905Z,18.93
2019-04-06T14:16:50.603Z,18.91
2019-04-06T14:19:20.718Z,18.75
2019-04-06T14:22:07.566Z,18.80
2019-04-06T14:24:53.733Z,18.76
2019-04-06T14:27:30.161Z,18.60
2019-04-06T14:30:07.001Z,18.49
2019-04-06T14:32:55.134Z,18.43
2019-04-06T14:35:25.748Z,18.33
2019-04-06T14:38:12.304Z,18.24
2019-04-06T14:40:54.789Z,18.19
2019-04-06T14:43:29.062Z,18.04
2019-04-06T14:46:00.468Z,17.94
2019-04-06T14:48:33.794Z,17.92
2019-04-06T14:51:19.485Z,17.97
2019-04-06T14:53:53.681Z,18.00
2019-04-06T14:56:40.477Z,17.97
2019-04-06T14:59:21.424Z,17.98
2019-04-06T15:02:10.393Z,17.94
2019-04-06T15:04:55.733Z,17.93
2019-04-06T15:07:34.971Z,18.01
2019-04-06T15:10:18.730Z,17.97
2019-04-06T15:12:49.010Z,17.96
2019-04-06T15:15:19.898Z,17.92
2019-04-06T15:17:56.856Z,17.91
2019-04-06T15:20:27.107Z,17.91
2019-04-06T15:23:13.551Z,17.92
2019-04-06T15:25:45.929Z,17.86
2019-04-06T15:28:34.398Z,17.74
2019-04-06T15:31:13.905Z,17.59
2019-04-06T15:33:47.059Z,17.35
2019-04-06T15:36:23.205Z,17.35
2019-04-06T15:38:54.448Z,17.22
2019-04-06T15:41:36.615Z,17.16
2019-04-06T15:44:07.479Z,17.07
2019-04-06T15:46:41.461Z,17.00
2019-04-06T15:49:14.887Z,16.96
2019-04-06T15:52:10.602Z,16.94
2019-04-06T15:54:48.015Z,16.95
2019-04-06T15:57:24.512Z,17.01
2019-04-06T15:59:54.734Z,17.04
2019-04-06T16:02:37.138Z,17.05
2019-04-06T16:05:09.374Z,17.04
2019-04-06T16:07:39.604Z,16.97
2019-04-06T16:10:10.143Z,16.89
2019-04-06T16:12:40.365Z,16.82
2019-04-06T16:15:11.245Z,16.76
2019-04-06T16:17:41.477Z,16.73
2019-04-06T16:20:14.676Z,16.67
2019-04-06T16:22:52.937Z,16.65
2019-04-06T16:25:30.409Z,16.62
2019-04-06T16:28:07.045Z,16.61
2019-04-06T16:30:42.811Z,16.63
2019-04-06T16:33:16.161Z,16.65
2019-04-06T16:35:55.941Z,16.67
2019-04-06T16:38:38.832Z,16.70
2019-04-06T16:41:15.258Z,16.74
2019-04-06T16:43:46.160Z,16.76
2019-04-06T16:46:31.612Z,16.74
2019-04-06T16:49:07.793Z,16.74
2019-04-06T16:51:54.209Z,16.70
2019-04-06T16:54:31.472Z,16.69
2019-04-06T16:57:20.081Z,16.64
2019-04-06T17:00:17.079Z,16.61
2019-04-06T17:02:55.128Z,16.57
2019-04-06T17:05:34.941Z,16.50
2019-04-06T17:08:14.115Z,16.44
2019-04-06T17:10:48.307Z,16.37
2019-04-06T17:13:28.444Z,16.29
2019-04-06T17:16:01.824Z,16.20
2019-04-06T17:18:48.656Z,16.07
2019-04-06T17:21:22.098Z,15.96
2019-04-06T17:24:10.217Z,15.81
2019-04-06T17:26:41.136Z,15.66
2019-04-06T17:29:17.523Z,15.49
2019-04-06T17:31:50.832Z,15.36
2019-04-06T17:34:36.202Z,15.22
2019-04-06T17:37:16.056Z,15.08
2019-04-06T17:39:46.282Z,14.95
2019-04-06T17:42:23.443Z,14.81
2019-04-06T17:44:54.443Z,14.69
2019-04-06T17:47:41.199Z,14.57
2019-04-06T17:50:20.222Z,14.45
2019-04-06T17:53:07.203Z,14.34
2019-04-06T17:55:43.051Z,14.22
2019-04-06T17:58:18.939Z,14.15
2019-04-06T18:01:01.032Z,14.08
2019-04-06T18:03:47.812Z,14.03
2019-04-06T18:06:22.010Z,13.98
2019-04-06T18:08:58.108Z,13.92
2019-04-06T18:11:28.306Z,13.83
2019-04-06T18:13:57.551Z,13.82
2019-04-06T18:16:30.038Z,13.80
2019-04-06T18:18:58.785Z,13.78
2019-04-06T18:21:27.965Z,13.74
2019-04-06T18:23:56.599Z,13.69
2019-04-06T18:26:26.008Z,13.67
2019-04-06T18:28:55.141Z,13.63
2019-04-06T18:31:33.961Z,13.58
2019-04-06T18:34:02.755Z,13.56
2019-04-06T18:36:51.125Z,13.55
2019-04-06T18:39:20.699Z,13.53
2019-04-06T18:41:49.287Z,13.54
2019-04-06T18:44:17.977Z,13.54
2019-04-06T18:46:46.560Z,13.54
2019-04-06T18:49:15.139Z,13.54
2019-04-06T18:51:43.919Z,13.53
2019-04-06T18:54:12.997Z,13.50
2019-04-06T18:56:42.297Z,13.44
2019-04-06T18:59:11.437Z,13.42
2019-04-06T19:01:40.415Z,13.40
2019-04-06T19:04:09.089Z,13.39
2019-04-06T19:06:38.494Z,13.37
2019-04-06T19:09:20.711Z,13.36
2019-04-06T19:11:39.380Z,13.35
2019-04-06T19:14:07.998Z,13.33
2019-04-06T19:16:36.694Z,13.30
2019-04-06T19:19:06.101Z,13.28
2019-04-06T19:21:35.042Z,13.25
2019-04-06T19:24:03.658Z,13.22
2019-04-06T19:26:33.861Z,13.24
2019-04-06T19:29:02.797Z,13.24
2019-04-06T19:31:31.746Z,13.24
2019-04-06T19:34:00.518Z,13.24
2019-04-06T19:36:29.534Z,13.26
2019-04-06T19:38:58.212Z,13.27
2019-04-06T19:41:27.155Z,13.31
2019-04-06T19:43:55.727Z,13.31
2019-04-06T19:46:24.747Z,13.29
2019-04-06T19:48:53.395Z,13.27
2019-04-06T19:51:21.984Z,13.23
2019-04-06T19:53:51.158Z,13.21
2019-04-06T19:56:20.093Z,13.19
2019-04-06T19:58:49.287Z,13.14
2019-04-06T20:01:17.958Z,13.08
2019-04-06T20:03:46.696Z,13.05
2019-04-06T20:06:15.536Z,13.02
2019-04-06T20:08:44.183Z,13.02
2019-04-06T20:11:12.861Z,13.02
2019-04-06T20:13:41.673Z,12.98
2019-04-06T20:16:10.887Z,12.96
2019-04-06T20:18:40.152Z,12.94
2019-04-06T20:21:09.799Z,12.90
2019-04-06T20:23:39.039Z,12.87
2019-04-06T20:26:09.097Z,12.86
2019-04-06T20:28:39.025Z,12.83
2019-04-06T20:31:08.225Z,12.81
2019-04-06T20:33:46.798Z,12.78
2019-04-06T20:36:07.380Z,12.74
2019-04-06T20:38:36.034Z,12.71
2019-04-06T20:41:05.245Z,12.66
2019-04-06T20:43:34.228Z,12.62
2019-04-06T20:46:03.050Z,12.60
2019-04-06T20:48:31.704Z,12.60
2019-04-06T20:51:00.416Z,12.59
2019-04-06T20:53:28.996Z,12.55
2019-04-06T20:55:57.702Z,12.53
2019-04-06T20:58:26.322Z,12.50
2019-04-06T21:00:55.476Z,12.47
2019-04-06T21:03:24.331Z,12.44
2019-04-06T21:05:53.089Z,12.40
2019-04-06T21:08:21.828Z,12.37
2019-04-06T21:10:50.900Z,12.34
2019-04-06T21:13:20.139Z,12.30
2019-04-06T21:15:48.928Z,12.30
2019-04-06T21:18:17.807Z,12.29
2019-04-06T21:20:48.045Z,12.31
2019-04-06T21:23:17.203Z,12.33
2019-04-06T21:25:46.480Z,12.33
2019-04-06T21:28:15.452Z,12.37
2019-04-06T21:30:44.341Z,12.38
2019-04-06T21:33:13.231Z,12.41
2019-04-06T21:35:42.434Z,12.43
2019-04-06T21:38:12.179Z,12.46
2019-04-06T21:40:41.099Z,12.49
2019-04-06T21:43:09.999Z,12.51
2019-04-06T21:45:39.325Z,12.53
2019-04-06T21:48:08.013Z,12.54
2019-04-06T21:50:36.687Z,12.53
2019-04-06T21:53:05.274Z,12.51
2019-04-06T21:55:33.914Z,12.50
2019-04-06T21:58:03.026Z,12.48
2019-04-06T22:00:50.062Z,12.46
2019-04-06T22:03:19.037Z,12.48
2019-04-06T22:05:47.936Z,12.47
2019-04-06T22:08:16.539Z,12.44
2019-04-06T22:10:45.876Z,12.38
2019-04-06T22:13:15.999Z,12.33
2019-04-06T22:15:45.049Z,12.30
2019-04-06T22:18:14.195Z,12.29
2019-04-06T22:20:43.757Z,12.29
2019-04-06T22:23:13.105Z,12.28
2019-04-06T22:25:42.178Z,12.26
2019-04-06T22:28:10.941Z,12.24
2019-04-06T22:30:40.512Z,12.23
2019-04-06T22:33:09.273Z,12.24
2019-04-06T22:35:39.004Z,12.22
2019-04-06T22:38:08.119Z,12.19
2019-04-06T22:40:37.063Z,12.17
2019-04-06T22:43:05.886Z,12.15
2019-04-06T22:45:35.048Z,12.15
2019-04-06T22:48:03.737Z,12.14
2019-04-06T22:50:32.693Z,12.16
2019-04-06T22:53:01.353Z,12.17
2019-04-06T22:55:29.957Z,12.20
2019-04-06T22:57:58.773Z,12.23
2019-04-06T23:00:32.109Z,12.25
2019-04-06T23:03:05.427Z,12.27
2019-04-06T23:05:47.970Z,12.28
2019-04-06T23:08:16.830Z,12.29
2019-04-06T23:10:45.688Z,12.32
2019-04-06T23:13:15.040Z,12.34
2019-04-06T23:15:43.959Z,12.33
2019-04-06T23:18:12.848Z,12.33
2019-04-06T23:20:41.553Z,12.35
2019-04-06T23:23:10.371Z,12.38
2019-04-06T23:25:39.612Z,12.40
2019-04-06T23:28:08.257Z,12.42
2019-04-06T23:30:37.562Z,12.43
2019-04-06T23:33:06.638Z,12.43
2019-04-06T23:35:35.768Z,12.44
2019-04-06T23:38:04.321Z,12.47
2019-04-06T23:40:33.040Z,12.48
2019-04-06T23:43:02.817Z,12.48
2019-04-06T23:45:31.931Z,12.51
2019-04-06T23:48:01.605Z,12.53
2019-04-06T23:50:31.440Z,12.54
2019-04-06T23:53:00.706Z,12.54
2019-04-06T23:55:30.018Z,12.55
2019-04-06T23:57:59.529Z,12.57
